createdAt,value
2018-09-23T00:00:23.506Z,0
2018-09-23T00:00:55.647Z,0
2018-09-23T00:01:27.806Z,0
2018-09-23T00:01:59.804Z,0
2018-09-23T00:02:31.849Z,0
2018-09-23T00:03:03.951Z,0
2018-09-23T00:03:36.061Z,0
2018-09-23T00:04:08.135Z,0
2018-09-23T00:04:40.166Z,0
2018-09-23T00:05:12.230Z,0
2018-09-23T00:05:44.298Z,0
2018-09-23T00:06:16.361Z,0
2018-09-23T00:06:48.373Z,0
2018-09-23T00:07:20.443Z,0
2018-09-23T00:07:52.499Z,0
2018-09-23T00:08:24.556Z,0
2018-09-23T00:08:56.629Z,0
2018-09-23T00:09:28.662Z,0
2018-09-23T00:10:00.714Z,0
2018-09-23T00:10:32.760Z,0
2018-09-23T00:11:04.823Z,0
2018-09-23T00:11:36.865Z,0
2018-09-23T00:12:08.943Z,0
2018-09-23T00:12:41.010Z,0
2018-09-23T00:13:13.863Z,0
2018-09-23T00:13:45.915Z,0
2018-09-23T00:14:17.989Z,0
2018-09-23T00:14:50.099Z,0
2018-09-23T00:15:22.149Z,0
2018-09-23T00:15:54.178Z,0
2018-09-23T00:16:26.212Z,0
2018-09-23T00:16:58.257Z,0
2018-09-23T00:17:30.271Z,0
2018-09-23T00:18:02.325Z,0
2018-09-23T00:18:34.425Z,0
2018-09-23T00:19:06.472Z,0
2018-09-23T00:19:38.532Z,0
2018-09-23T00:20:10.585Z,0
2018-09-23T00:20:42.628Z,0
2018-09-23T00:21:14.674Z,0
2018-09-23T00:21:46.723Z,0
2018-09-23T00:22:18.853Z,0
2018-09-23T00:22:50.895Z,0
2018-09-23T00:23:22.954Z,0
2018-09-23T00:23:55.038Z,0
2018-09-23T00:24:27.107Z,0
2018-09-23T00:24:59.190Z,0
2018-09-23T00:25:31.240Z,0
2018-09-23T00:26:03.330Z,0
2018-09-23T00:26:35.411Z,0
2018-09-23T00:27:07.434Z,0
2018-09-23T00:27:39.468Z,0
2018-09-23T00:28:11.539Z,0
2018-09-23T00:28:43.595Z,0
2018-09-23T00:29:15.670Z,0
2018-09-23T00:29:48.670Z,0
2018-09-23T00:30:20.751Z,0
2018-09-23T00:30:52.836Z,0
2018-09-23T00:31:24.884Z,0
2018-09-23T00:31:56.920Z,0
2018-09-23T00:32:28.978Z,0
2018-09-23T00:33:01.117Z,0
2018-09-23T00:33:33.218Z,0
2018-09-23T00:34:05.252Z,0
2018-09-23T00:34:37.310Z,0
2018-09-23T00:35:09.358Z,0
2018-09-23T00:35:41.408Z,0
2018-09-23T00:36:13.457Z,0
2018-09-23T00:36:45.479Z,0
2018-09-23T00:37:17.536Z,0
2018-09-23T00:37:49.603Z,0
2018-09-23T00:38:21.656Z,0
2018-09-23T00:38:53.726Z,0
2018-09-23T00:39:25.820Z,0
2018-09-23T00:39:57.885Z,0
2018-09-23T00:40:30.021Z,0
2018-09-23T00:41:02.228Z,0
2018-09-23T00:41:34.288Z,0
2018-09-23T00:42:06.309Z,0
2018-09-23T00:42:38.296Z,0
2018-09-23T00:43:10.306Z,0
2018-09-23T00:43:42.363Z,0
2018-09-23T00:44:14.381Z,0
2018-09-23T00:44:46.451Z,0
2018-09-23T00:45:18.520Z,0
2018-09-23T00:45:50.563Z,0
2018-09-23T00:46:22.615Z,0
2018-09-23T00:46:54.674Z,0
2018-09-23T00:47:26.738Z,0
2018-09-23T00:47:58.780Z,0
2018-09-23T00:48:30.921Z,0
2018-09-23T00:49:02.980Z,0
2018-09-23T00:49:35.019Z,0
2018-09-23T00:50:07.143Z,0
2018-09-23T00:50:39.219Z,0
2018-09-23T00:51:11.271Z,0
2018-09-23T00:51:43.322Z,0
2018-09-23T00:52:15.367Z,0
2018-09-23T00:52:47.429Z,0
2018-09-23T00:53:19.447Z,0
2018-09-23T00:53:51.502Z,0
2018-09-23T00:54:23.567Z,0
2018-09-23T00:54:55.652Z,0
2018-09-23T00:55:27.682Z,0
2018-09-23T00:55:59.751Z,0
2018-09-23T00:56:32.310Z,0
2018-09-23T00:57:04.336Z,0
2018-09-23T00:57:36.396Z,0
2018-09-23T00:58:08.461Z,0
2018-09-23T00:58:40.604Z,0
2018-09-23T00:59:12.751Z,0
2018-09-23T00:59:44.869Z,0
2018-09-23T01:00:16.930Z,0
2018-09-23T01:00:48.948Z,0
2018-09-23T01:01:21.060Z,0
2018-09-23T01:01:53.155Z,0
2018-09-23T01:02:25.199Z,0
2018-09-23T01:02:57.228Z,0
2018-09-23T01:03:29.306Z,0
2018-09-23T01:04:01.379Z,0
2018-09-23T01:04:33.389Z,0
2018-09-23T01:05:05.438Z,0
2018-09-23T01:05:37.486Z,0
2018-09-23T01:06:09.537Z,0
2018-09-23T01:06:41.537Z,0
2018-09-23T01:07:13.587Z,0
2018-09-23T01:07:45.665Z,0
2018-09-23T01:08:17.733Z,0
2018-09-23T01:08:49.761Z,0
2018-09-23T01:09:21.819Z,0
2018-09-23T01:09:53.900Z,0
2018-09-23T01:10:25.942Z,0
2018-09-23T01:10:57.992Z,0
2018-09-23T01:11:30.065Z,0
2018-09-23T01:12:02.127Z,0
2018-09-23T01:12:34.281Z,0
2018-09-23T01:13:06.326Z,0
2018-09-23T01:13:38.343Z,0
2018-09-23T01:14:10.394Z,0
2018-09-23T01:14:42.404Z,0
2018-09-23T01:15:14.500Z,0
2018-09-23T01:15:46.598Z,0
2018-09-23T01:16:18.836Z,0
2018-09-23T01:16:50.904Z,0
2018-09-23T01:17:22.957Z,0
2018-09-23T01:17:55.007Z,0
2018-09-23T01:18:27.063Z,0
2018-09-23T01:18:59.959Z,0
2018-09-23T01:19:31.995Z,0
2018-09-23T01:20:04.076Z,0
2018-09-23T01:20:36.116Z,0
2018-09-23T01:21:08.363Z,0
2018-09-23T01:21:40.423Z,0
2018-09-23T01:22:12.446Z,0
2018-09-23T01:22:44.506Z,0
2018-09-23T01:23:16.561Z,0
2018-09-23T01:23:48.593Z,0
2018-09-23T01:24:20.633Z,0
2018-09-23T01:24:52.701Z,0
2018-09-23T01:25:24.741Z,0
2018-09-23T01:25:56.806Z,0
2018-09-23T01:26:28.863Z,0
2018-09-23T01:27:00.884Z,0
2018-09-23T01:27:32.912Z,0
2018-09-23T01:28:04.940Z,0
2018-09-23T01:28:37.068Z,0
2018-09-23T01:29:09.137Z,0
2018-09-23T01:29:41.172Z,0
2018-09-23T01:30:13.234Z,0
2018-09-23T01:30:45.334Z,0
2018-09-23T01:31:17.433Z,0
2018-09-23T01:31:49.625Z,0
2018-09-23T01:32:21.728Z,0
2018-09-23T01:32:53.749Z,0
2018-09-23T01:33:25.828Z,0
2018-09-23T01:33:57.881Z,0
2018-09-23T01:34:29.917Z,0
2018-09-23T01:35:01.960Z,0
2018-09-23T01:35:34.023Z,0
2018-09-23T01:36:06.143Z,0
2018-09-23T01:36:38.232Z,0
2018-09-23T01:37:10.307Z,0
2018-09-23T01:37:42.376Z,0
2018-09-23T01:38:14.497Z,0
2018-09-23T01:38:46.529Z,0
2018-09-23T01:39:18.592Z,0
2018-09-23T01:39:50.678Z,0
2018-09-23T01:40:22.737Z,0
2018-09-23T01:40:54.777Z,0
2018-09-23T01:41:26.821Z,0
2018-09-23T01:41:58.859Z,0
2018-09-23T01:42:30.900Z,0
2018-09-23T01:43:02.933Z,0
2018-09-23T01:43:35.016Z,0
2018-09-23T01:44:07.080Z,0
2018-09-23T01:44:39.102Z,0
2018-09-23T01:45:11.160Z,0
2018-09-23T01:45:43.197Z,0
2018-09-23T01:46:15.233Z,0
2018-09-23T01:46:47.266Z,0
2018-09-23T01:47:19.307Z,0
2018-09-23T01:47:51.356Z,0
2018-09-23T01:48:23.388Z,0
2018-09-23T01:48:55.440Z,0
2018-09-23T01:49:27.501Z,0
2018-09-23T01:49:59.637Z,0
2018-09-23T01:50:31.703Z,0
2018-09-23T01:51:03.714Z,0
2018-09-23T01:51:35.792Z,0
2018-09-23T01:52:07.844Z,0
2018-09-23T01:52:40.729Z,0
2018-09-23T01:53:12.781Z,0
2018-09-23T01:53:44.953Z,0
2018-09-23T01:54:17.122Z,0
2018-09-23T01:54:49.220Z,0
2018-09-23T01:55:21.280Z,0
2018-09-23T01:55:53.326Z,0
2018-09-23T01:56:25.402Z,0
2018-09-23T01:56:57.401Z,0
2018-09-23T01:57:29.477Z,0
2018-09-23T01:58:01.521Z,0
2018-09-23T01:58:33.590Z,0
2018-09-23T01:59:05.634Z,0
2018-09-23T01:59:37.754Z,0
2018-09-23T02:00:09.739Z,0
2018-09-23T02:00:41.810Z,0
2018-09-23T02:01:13.894Z,0
2018-09-23T02:01:46.076Z,0
2018-09-23T02:02:18.123Z,0
2018-09-23T02:02:50.193Z,0
2018-09-23T02:03:22.278Z,0
2018-09-23T02:03:54.301Z,0
2018-09-23T02:04:27.146Z,0
2018-09-23T02:04:59.206Z,0
2018-09-23T02:05:31.289Z,0
2018-09-23T02:06:03.359Z,0
2018-09-23T02:06:35.440Z,0
2018-09-23T02:07:07.602Z,0
2018-09-23T02:07:39.690Z,0
2018-09-23T02:08:11.763Z,0
2018-09-23T02:08:43.934Z,0
2018-09-23T02:09:16.113Z,0
2018-09-23T02:09:48.276Z,0
2018-09-23T02:10:20.329Z,0
2018-09-23T02:10:52.366Z,0
2018-09-23T02:11:24.447Z,0
2018-09-23T02:11:56.500Z,0
2018-09-23T02:12:28.541Z,0
2018-09-23T02:13:00.746Z,0
2018-09-23T02:13:32.807Z,0
2018-09-23T02:14:04.844Z,0
2018-09-23T02:14:36.920Z,0
2018-09-23T02:15:09.416Z,0
2018-09-23T02:15:41.473Z,0
2018-09-23T02:16:13.522Z,0
2018-09-23T02:16:45.583Z,0
2018-09-23T02:17:17.644Z,0
2018-09-23T02:17:49.686Z,0
2018-09-23T02:18:21.863Z,0
2018-09-23T02:18:53.888Z,0
2018-09-23T02:19:25.947Z,0
2018-09-23T02:19:57.999Z,0
2018-09-23T02:20:30.015Z,0
2018-09-23T02:21:02.139Z,0
2018-09-23T02:21:34.169Z,0
2018-09-23T02:22:06.228Z,0
2018-09-23T02:22:38.278Z,0
2018-09-23T02:23:10.334Z,0
2018-09-23T02:23:42.422Z,0
2018-09-23T02:24:14.458Z,0
2018-09-23T02:24:46.547Z,0
2018-09-23T02:25:18.589Z,0
2018-09-23T02:25:50.714Z,0
2018-09-23T02:26:22.802Z,0
2018-09-23T02:26:54.822Z,0
2018-09-23T02:27:26.873Z,0
2018-09-23T02:27:59.000Z,0
2018-09-23T02:28:31.056Z,0
2018-09-23T02:29:03.139Z,0
2018-09-23T02:29:35.207Z,0
2018-09-23T02:30:07.275Z,0
2018-09-23T02:30:39.392Z,0
2018-09-23T02:31:11.429Z,0
2018-09-23T02:31:43.471Z,0
2018-09-23T02:32:15.553Z,0
2018-09-23T02:32:47.580Z,0
2018-09-23T02:33:19.676Z,0
2018-09-23T02:33:51.739Z,0
2018-09-23T02:34:23.773Z,0
2018-09-23T02:34:55.806Z,0
2018-09-23T02:35:27.887Z,0
2018-09-23T02:35:59.942Z,0
2018-09-23T02:36:32.016Z,0
2018-09-23T02:37:04.077Z,0
2018-09-23T02:37:36.236Z,0
2018-09-23T02:38:08.232Z,0
2018-09-23T02:38:40.292Z,0
2018-09-23T02:39:12.379Z,0
2018-09-23T02:39:44.476Z,0
2018-09-23T02:40:16.502Z,0
2018-09-23T02:40:48.589Z,0
2018-09-23T02:41:20.652Z,0
2018-09-23T02:41:52.767Z,0
2018-09-23T02:42:24.964Z,0
2018-09-23T02:42:57.089Z,0
2018-09-23T02:43:29.133Z,0
2018-09-23T02:44:01.162Z,0
2018-09-23T02:44:33.246Z,0
2018-09-23T02:45:05.325Z,0
2018-09-23T02:45:37.330Z,0
2018-09-23T02:46:09.362Z,0
2018-09-23T02:46:41.450Z,0
2018-09-23T02:47:13.549Z,0
2018-09-23T02:47:45.641Z,0
2018-09-23T02:48:17.702Z,0
2018-09-23T02:48:49.746Z,0
2018-09-23T02:49:21.827Z,0
2018-09-23T02:49:53.851Z,0
2018-09-23T02:50:25.940Z,0
2018-09-23T02:50:58.014Z,0
2018-09-23T02:51:30.130Z,0
2018-09-23T02:52:02.204Z,0
2018-09-23T02:52:34.197Z,0
2018-09-23T02:53:06.254Z,0
2018-09-23T02:53:38.309Z,0
2018-09-23T02:54:10.396Z,0
2018-09-23T02:54:42.450Z,0
2018-09-23T02:55:14.523Z,0
2018-09-23T02:55:46.614Z,0
2018-09-23T02:56:18.655Z,0
2018-09-23T02:56:50.694Z,0
2018-09-23T02:57:22.804Z,0
2018-09-23T02:57:54.823Z,0
2018-09-23T02:58:26.844Z,0
2018-09-23T02:58:58.882Z,0
2018-09-23T02:59:30.992Z,0
2018-09-23T03:00:03.079Z,0
2018-09-23T03:00:35.134Z,0
2018-09-23T03:01:07.205Z,0
2018-09-23T03:01:39.274Z,0
2018-09-23T03:02:11.360Z,0
2018-09-23T03:02:43.473Z,0
2018-09-23T03:03:15.621Z,0
2018-09-23T03:03:47.703Z,0
2018-09-23T03:04:19.769Z,0
2018-09-23T03:04:51.825Z,0
2018-09-23T03:05:23.889Z,0
2018-09-23T03:05:55.972Z,0
2018-09-23T03:06:27.997Z,0
2018-09-23T03:07:00.055Z,0
2018-09-23T03:07:32.138Z,0
2018-09-23T03:08:04.169Z,0
2018-09-23T03:08:36.247Z,0
2018-09-23T03:09:08.314Z,0
2018-09-23T03:09:40.352Z,0
2018-09-23T03:10:12.431Z,0
2018-09-23T03:10:44.506Z,0
2018-09-23T03:11:17.473Z,0
2018-09-23T03:11:49.516Z,0
2018-09-23T03:12:21.605Z,0
2018-09-23T03:12:53.688Z,0
2018-09-23T03:13:25.748Z,0
2018-09-23T03:13:57.821Z,0
2018-09-23T03:14:29.887Z,0
2018-09-23T03:15:01.964Z,0
2018-09-23T03:15:34.772Z,0
2018-09-23T03:16:06.850Z,0
2018-09-23T03:16:38.983Z,0
2018-09-23T03:17:11.096Z,0
2018-09-23T03:17:43.151Z,0
2018-09-23T03:18:15.198Z,0
2018-09-23T03:18:47.312Z,0
2018-09-23T03:19:19.378Z,0
2018-09-23T03:19:51.458Z,0
2018-09-23T03:20:23.504Z,0
2018-09-23T03:20:55.578Z,0
2018-09-23T03:21:27.644Z,0
2018-09-23T03:21:59.730Z,0
2018-09-23T03:22:31.742Z,0
2018-09-23T03:23:03.820Z,0
2018-09-23T03:23:35.893Z,0
2018-09-23T03:24:07.943Z,0
2018-09-23T03:24:40.012Z,0
2018-09-23T03:25:12.042Z,0
2018-09-23T03:25:44.117Z,0
2018-09-23T03:26:16.147Z,0
2018-09-23T03:26:48.191Z,0
2018-09-23T03:27:20.275Z,0
2018-09-23T03:27:52.304Z,0
2018-09-23T03:28:24.384Z,0
2018-09-23T03:28:56.471Z,0
2018-09-23T03:29:28.545Z,0
2018-09-23T03:30:00.691Z,0
2018-09-23T03:30:32.761Z,0
2018-09-23T03:31:04.790Z,0
2018-09-23T03:31:36.844Z,0
2018-09-23T03:32:09.016Z,0
2018-09-23T03:32:41.072Z,0
2018-09-23T03:33:13.154Z,0
2018-09-23T03:33:45.165Z,0
2018-09-23T03:34:17.233Z,0
2018-09-23T03:34:49.380Z,0
2018-09-23T03:35:21.420Z,0
2018-09-23T03:35:53.481Z,0
2018-09-23T03:36:25.536Z,0
2018-09-23T03:36:57.586Z,0
2018-09-23T03:37:29.663Z,0
2018-09-23T03:38:01.698Z,0
2018-09-23T03:38:33.766Z,0
2018-09-23T03:39:05.829Z,0
2018-09-23T03:39:38.698Z,0
2018-09-23T03:40:10.850Z,0
2018-09-23T03:40:42.917Z,0
2018-09-23T03:41:14.976Z,0
2018-09-23T03:41:47.023Z,0
2018-09-23T03:42:19.101Z,0
2018-09-23T03:42:51.159Z,0
2018-09-23T03:43:23.335Z,0
2018-09-23T03:43:55.397Z,0
2018-09-23T03:44:27.456Z,0
2018-09-23T03:44:59.525Z,0
2018-09-23T03:45:31.570Z,0
2018-09-23T03:46:03.740Z,0
2018-09-23T03:46:35.830Z,0
2018-09-23T03:47:07.881Z,0
2018-09-23T03:47:39.956Z,0
2018-09-23T03:48:12.017Z,0
2018-09-23T03:48:44.096Z,0
2018-09-23T03:49:16.180Z,0
2018-09-23T03:49:48.225Z,0
2018-09-23T03:50:20.300Z,0
2018-09-23T03:50:52.345Z,0
2018-09-23T03:51:24.433Z,0
2018-09-23T03:51:56.468Z,0
2018-09-23T03:52:29.136Z,0
2018-09-23T03:53:01.151Z,0
2018-09-23T03:53:33.202Z,0
2018-09-23T03:54:05.256Z,0
2018-09-23T03:54:37.317Z,0
2018-09-23T03:55:09.456Z,0
2018-09-23T03:55:41.450Z,0
2018-09-23T03:56:13.483Z,0
2018-09-23T03:56:45.565Z,0
2018-09-23T03:57:17.650Z,0
2018-09-23T03:57:49.739Z,0
2018-09-23T03:58:21.805Z,0
2018-09-23T03:58:53.852Z,0
2018-09-23T03:59:25.929Z,0
2018-09-23T03:59:58.008Z,0
2018-09-23T04:00:30.072Z,0
2018-09-23T04:01:02.128Z,0
2018-09-23T04:01:34.143Z,0
2018-09-23T04:02:06.178Z,0
2018-09-23T04:02:38.250Z,0
2018-09-23T04:03:10.292Z,0
2018-09-23T04:03:42.317Z,0
2018-09-23T04:04:14.370Z,0
2018-09-23T04:04:46.460Z,0
2018-09-23T04:05:18.563Z,0
2018-09-23T04:05:50.604Z,0
2018-09-23T04:06:22.660Z,0
2018-09-23T04:06:54.746Z,0
2018-09-23T04:07:27.611Z,0
2018-09-23T04:07:59.658Z,0
2018-09-23T04:08:31.727Z,0
2018-09-23T04:09:03.784Z,0
2018-09-23T04:09:35.887Z,0
2018-09-23T04:10:07.899Z,0
2018-09-23T04:10:39.924Z,0
2018-09-23T04:11:11.974Z,0
2018-09-23T04:11:44.042Z,0
2018-09-23T04:12:16.163Z,0
2018-09-23T04:12:48.165Z,0
2018-09-23T04:13:20.215Z,0
2018-09-23T04:13:52.253Z,0
2018-09-23T04:14:24.276Z,0
2018-09-23T04:14:56.321Z,0
2018-09-23T04:15:28.386Z,0
2018-09-23T04:16:00.453Z,0
2018-09-23T04:16:32.541Z,0
2018-09-23T04:17:04.687Z,0
2018-09-23T04:17:36.755Z,0
2018-09-23T04:18:08.785Z,0
2018-09-23T04:18:40.849Z,0
2018-09-23T04:19:12.945Z,0
2018-09-23T04:19:45.032Z,0
2018-09-23T04:20:17.097Z,0
2018-09-23T04:20:49.164Z,0
2018-09-23T04:21:21.301Z,0
2018-09-23T04:21:53.360Z,0
2018-09-23T04:22:25.413Z,0
2018-09-23T04:22:57.474Z,0
2018-09-23T04:23:29.539Z,0
2018-09-23T04:24:01.640Z,0
2018-09-23T04:24:33.659Z,0
2018-09-23T04:25:05.730Z,0
2018-09-23T04:25:37.812Z,0
2018-09-23T04:26:09.865Z,0
2018-09-23T04:26:41.992Z,0
2018-09-23T04:27:14.121Z,0
2018-09-23T04:27:46.145Z,0
2018-09-23T04:28:18.225Z,0
2018-09-23T04:28:50.303Z,0
2018-09-23T04:29:22.431Z,0
2018-09-23T04:29:54.483Z,0
2018-09-23T04:30:26.584Z,0
2018-09-23T04:30:58.629Z,0
2018-09-23T04:31:30.653Z,0
2018-09-23T04:32:02.724Z,0
2018-09-23T04:32:34.770Z,0
2018-09-23T04:33:06.844Z,0
2018-09-23T04:33:38.943Z,0
2018-09-23T04:34:10.992Z,0
2018-09-23T04:34:43.075Z,0
2018-09-23T04:35:15.155Z,0
2018-09-23T04:35:47.185Z,0
2018-09-23T04:36:19.251Z,0
2018-09-23T04:36:51.320Z,0
2018-09-23T04:37:23.368Z,0
2018-09-23T04:37:55.447Z,0
2018-09-23T04:38:27.504Z,0
2018-09-23T04:38:59.576Z,0
2018-09-23T04:39:31.655Z,0
2018-09-23T04:40:03.732Z,0
2018-09-23T04:40:35.762Z,0
2018-09-23T04:41:07.805Z,0
2018-09-23T04:41:39.862Z,0
2018-09-23T04:42:11.923Z,0
2018-09-23T04:42:43.947Z,0
2018-09-23T04:43:15.982Z,0
2018-09-23T04:43:48.085Z,0
2018-09-23T04:44:20.173Z,0
2018-09-23T04:44:52.317Z,0
2018-09-23T04:45:24.340Z,0
2018-09-23T04:45:56.376Z,0
2018-09-23T04:46:28.538Z,0
2018-09-23T04:47:01.241Z,0
2018-09-23T04:47:33.268Z,0
2018-09-23T04:48:05.805Z,0
2018-09-23T04:48:37.860Z,0
2018-09-23T04:49:09.920Z,0
2018-09-23T04:49:42.045Z,0
2018-09-23T04:50:14.236Z,0
2018-09-23T04:50:46.323Z,0
2018-09-23T04:51:18.374Z,0
2018-09-23T04:51:50.421Z,0
2018-09-23T04:52:22.438Z,0
2018-09-23T04:52:54.530Z,0
2018-09-23T04:53:26.597Z,4
2018-09-23T04:53:58.727Z,4
2018-09-23T04:54:30.767Z,4
2018-09-23T04:55:02.789Z,4
2018-09-23T04:55:34.810Z,4
2018-09-23T04:56:06.868Z,0
2018-09-23T04:56:38.962Z,0
2018-09-23T04:57:11.059Z,4
2018-09-23T04:57:43.117Z,4
2018-09-23T04:58:15.138Z,4
2018-09-23T04:58:47.193Z,4
2018-09-23T04:59:19.267Z,4
2018-09-23T04:59:51.346Z,8
2018-09-23T05:00:23.394Z,4
2018-09-23T05:00:55.545Z,4
2018-09-23T05:01:27.557Z,4
2018-09-23T05:01:59.587Z,8
2018-09-23T05:02:31.604Z,8
2018-09-23T05:03:03.705Z,8
2018-09-23T05:03:35.945Z,8
2018-09-23T05:04:08.020Z,12
2018-09-23T05:04:40.071Z,8
2018-09-23T05:05:12.106Z,12
2018-09-23T05:05:44.128Z,12
2018-09-23T05:06:16.304Z,12
2018-09-23T05:06:48.361Z,12
2018-09-23T05:07:20.393Z,16
2018-09-23T05:07:52.471Z,12
2018-09-23T05:08:24.537Z,16
2018-09-23T05:08:56.530Z,16
2018-09-23T05:09:28.606Z,16
2018-09-23T05:10:00.643Z,16
2018-09-23T05:10:32.695Z,20
2018-09-23T05:11:04.748Z,20
2018-09-23T05:11:36.848Z,24
2018-09-23T05:12:08.954Z,24
2018-09-23T05:12:41.000Z,24
2018-09-23T05:13:13.040Z,24
2018-09-23T05:13:45.123Z,28
2018-09-23T05:14:17.169Z,28
2018-09-23T05:14:49.232Z,32
2018-09-23T05:15:21.269Z,36
2018-09-23T05:15:53.344Z,36
2018-09-23T05:16:25.389Z,36
2018-09-23T05:16:57.436Z,40
2018-09-23T05:17:29.507Z,44
2018-09-23T05:18:01.626Z,48
2018-09-23T05:18:33.682Z,48
2018-09-23T05:19:05.754Z,48
2018-09-23T05:19:37.795Z,52
2018-09-23T05:20:09.868Z,52
2018-09-23T05:20:41.941Z,56
2018-09-23T05:21:14.081Z,60
2018-09-23T05:21:46.116Z,60
2018-09-23T05:22:18.159Z,60
2018-09-23T05:22:50.336Z,64
2018-09-23T05:23:22.451Z,64
2018-09-23T05:23:54.501Z,68
2018-09-23T05:24:26.567Z,68
2018-09-23T05:24:58.631Z,72
2018-09-23T05:25:30.680Z,72
2018-09-23T05:26:02.725Z,72
2018-09-23T05:26:34.792Z,76
2018-09-23T05:27:06.854Z,80
2018-09-23T05:27:39.041Z,80
2018-09-23T05:28:11.154Z,84
2018-09-23T05:28:43.275Z,88
2018-09-23T05:29:15.316Z,92
2018-09-23T05:29:47.368Z,92
2018-09-23T05:30:19.428Z,96
2018-09-23T05:30:51.576Z,96
2018-09-23T05:31:23.714Z,104
2018-09-23T05:31:55.714Z,104
2018-09-23T05:32:27.754Z,104
2018-09-23T05:32:59.812Z,108
2018-09-23T05:33:31.867Z,112
2018-09-23T05:34:03.902Z,116
2018-09-23T05:34:35.954Z,120
2018-09-23T05:35:08.075Z,128
2018-09-23T05:35:40.175Z,128
2018-09-23T05:36:12.252Z,136
2018-09-23T05:36:44.324Z,140
2018-09-23T05:37:16.369Z,144
2018-09-23T05:37:48.428Z,148
2018-09-23T05:38:20.609Z,148
2018-09-23T05:38:52.684Z,152
2018-09-23T05:39:24.731Z,152
2018-09-23T05:39:56.702Z,156
2018-09-23T05:40:28.802Z,160
2018-09-23T05:41:00.798Z,164
2018-09-23T05:41:32.831Z,172
2018-09-23T05:42:04.934Z,180
2018-09-23T05:42:37.003Z,184
2018-09-23T05:43:09.057Z,192
2018-09-23T05:43:41.095Z,196
2018-09-23T05:44:13.193Z,200
2018-09-23T05:44:45.223Z,196
2018-09-23T05:45:17.299Z,196
2018-09-23T05:45:49.394Z,196
2018-09-23T05:46:21.467Z,196
2018-09-23T05:46:53.519Z,200
2018-09-23T05:47:25.560Z,204
2018-09-23T05:47:57.613Z,212
2018-09-23T05:48:29.629Z,220
2018-09-23T05:49:01.685Z,228
2018-09-23T05:49:33.743Z,224
2018-09-23T05:50:05.838Z,224
2018-09-23T05:50:37.903Z,220
2018-09-23T05:51:09.983Z,220
2018-09-23T05:51:42.018Z,216
2018-09-23T05:52:14.069Z,212
2018-09-23T05:52:46.227Z,212
2018-09-23T05:53:18.436Z,212
2018-09-23T05:53:50.506Z,212
2018-09-23T05:54:22.551Z,216
2018-09-23T05:54:54.624Z,228
2018-09-23T05:55:26.761Z,240
2018-09-23T05:55:58.946Z,252
2018-09-23T05:56:31.000Z,264
2018-09-23T05:57:03.069Z,268
2018-09-23T05:57:35.156Z,272
2018-09-23T05:58:08.020Z,272
2018-09-23T05:58:40.059Z,268
2018-09-23T05:59:12.119Z,272
2018-09-23T05:59:44.217Z,276
2018-09-23T06:00:16.276Z,280
2018-09-23T06:00:48.349Z,284
2018-09-23T06:01:20.376Z,284
2018-09-23T06:01:52.441Z,280
2018-09-23T06:02:24.479Z,280
2018-09-23T06:02:56.562Z,276
2018-09-23T06:03:28.595Z,276
2018-09-23T06:04:00.674Z,276
2018-09-23T06:04:32.690Z,276
2018-09-23T06:05:04.732Z,280
2018-09-23T06:05:36.724Z,288
2018-09-23T06:06:08.785Z,296
2018-09-23T06:06:40.862Z,316
2018-09-23T06:07:12.898Z,336
2018-09-23T06:07:45.698Z,348
2018-09-23T06:08:17.766Z,360
2018-09-23T06:08:49.873Z,368
2018-09-23T06:09:21.965Z,372
2018-09-23T06:09:54.003Z,372
2018-09-23T06:10:26.083Z,372
2018-09-23T06:10:58.160Z,372
2018-09-23T06:11:30.220Z,372
2018-09-23T06:12:02.255Z,376
2018-09-23T06:12:34.323Z,380
2018-09-23T06:13:06.363Z,368
2018-09-23T06:13:38.408Z,344
2018-09-23T06:14:10.465Z,324
2018-09-23T06:14:42.581Z,316
2018-09-23T06:15:14.731Z,316
2018-09-23T06:15:46.739Z,324
2018-09-23T06:16:18.767Z,348
2018-09-23T06:16:50.843Z,384
2018-09-23T06:17:22.891Z,416
2018-09-23T06:17:54.917Z,440
2018-09-23T06:18:27.050Z,456
2018-09-23T06:18:59.107Z,452
2018-09-23T06:19:31.178Z,440
2018-09-23T06:20:03.327Z,420
2018-09-23T06:20:35.362Z,408
2018-09-23T06:21:07.402Z,396
2018-09-23T06:21:39.457Z,388
2018-09-23T06:22:11.515Z,396
2018-09-23T06:22:43.583Z,404
2018-09-23T06:23:15.660Z,416
2018-09-23T06:23:47.709Z,432
2018-09-23T06:24:19.746Z,448
2018-09-23T06:24:51.926Z,452
2018-09-23T06:25:24.197Z,448
2018-09-23T06:25:56.294Z,436
2018-09-23T06:26:28.304Z,428
2018-09-23T06:27:00.362Z,420
2018-09-23T06:27:32.446Z,416
2018-09-23T06:28:04.511Z,428
2018-09-23T06:28:36.592Z,440
2018-09-23T06:29:08.633Z,464
2018-09-23T06:29:41.706Z,480
2018-09-23T06:30:13.739Z,484
2018-09-23T06:30:45.916Z,492
2018-09-23T06:31:17.947Z,504
2018-09-23T06:31:50.001Z,520
2018-09-23T06:32:22.046Z,540
2018-09-23T06:32:54.833Z,556
2018-09-23T06:33:26.845Z,568
2018-09-23T06:33:58.930Z,576
2018-09-23T06:34:31.007Z,576
2018-09-23T06:35:03.037Z,576
2018-09-23T06:35:35.077Z,572
2018-09-23T06:36:07.152Z,572
2018-09-23T06:36:39.235Z,580
2018-09-23T06:37:11.385Z,588
2018-09-23T06:37:43.504Z,596
2018-09-23T06:38:15.669Z,604
2018-09-23T06:38:47.753Z,604
2018-09-23T06:39:19.783Z,600
2018-09-23T06:39:51.829Z,576
2018-09-23T06:40:23.895Z,560
2018-09-23T06:40:55.964Z,548
2018-09-23T06:41:28.037Z,552
2018-09-23T06:42:00.103Z,560
2018-09-23T06:42:32.187Z,560
2018-09-23T06:43:04.292Z,564
2018-09-23T06:43:36.495Z,576
2018-09-23T06:44:08.565Z,596
2018-09-23T06:44:40.616Z,624
2018-09-23T06:45:12.655Z,656
2018-09-23T06:45:44.783Z,688
2018-09-23T06:46:16.859Z,712
2018-09-23T06:46:48.882Z,732
2018-09-23T06:47:20.938Z,744
2018-09-23T06:47:53.094Z,736
2018-09-23T06:48:25.283Z,716
2018-09-23T06:48:57.324Z,692
2018-09-23T06:49:29.378Z,668
2018-09-23T06:50:01.452Z,644
2018-09-23T06:50:33.537Z,624
2018-09-23T06:51:05.619Z,604
2018-09-23T06:51:37.712Z,584
2018-09-23T06:52:09.757Z,560
2018-09-23T06:52:41.806Z,540
2018-09-23T06:53:13.883Z,520
2018-09-23T06:53:45.878Z,500
2018-09-23T06:54:17.919Z,480
2018-09-23T06:54:49.947Z,460
2018-09-23T06:55:21.986Z,448
2018-09-23T06:55:54.047Z,452
2018-09-23T06:56:26.072Z,472
2018-09-23T06:56:58.219Z,500
2018-09-23T06:57:30.223Z,528
2018-09-23T06:58:02.286Z,548
2018-09-23T06:58:34.343Z,568
2018-09-23T06:59:06.406Z,580
2018-09-23T06:59:38.415Z,584
2018-09-23T07:00:10.500Z,588
2018-09-23T07:00:42.538Z,600
2018-09-23T07:01:14.620Z,612
2018-09-23T07:01:46.666Z,620
2018-09-23T07:02:18.772Z,628
2018-09-23T07:02:50.815Z,620
2018-09-23T07:03:22.850Z,600
2018-09-23T07:03:54.913Z,588
2018-09-23T07:04:27.009Z,592
2018-09-23T07:04:59.185Z,612
2018-09-23T07:05:31.351Z,636
2018-09-23T07:06:03.472Z,656
2018-09-23T07:06:35.499Z,672
2018-09-23T07:07:07.554Z,676
2018-09-23T07:07:39.610Z,672
2018-09-23T07:08:11.657Z,668
2018-09-23T07:08:43.679Z,648
2018-09-23T07:09:15.692Z,636
2018-09-23T07:09:47.769Z,628
2018-09-23T07:10:19.856Z,628
2018-09-23T07:10:51.945Z,632
2018-09-23T07:11:24.009Z,648
2018-09-23T07:11:56.064Z,660
2018-09-23T07:12:28.121Z,668
2018-09-23T07:13:00.181Z,680
2018-09-23T07:13:32.226Z,684
2018-09-23T07:14:04.258Z,684
2018-09-23T07:14:36.326Z,680
2018-09-23T07:15:08.338Z,676
2018-09-23T07:15:40.356Z,680
2018-09-23T07:16:12.395Z,688
2018-09-23T07:16:44.360Z,696
2018-09-23T07:17:16.399Z,708
2018-09-23T07:17:48.462Z,724
2018-09-23T07:18:20.567Z,744
2018-09-23T07:18:52.617Z,772
2018-09-23T07:19:24.647Z,808
2018-09-23T07:19:56.670Z,848
2018-09-23T07:20:28.735Z,876
2018-09-23T07:21:00.771Z,892
2018-09-23T07:21:32.801Z,908
2018-09-23T07:22:04.839Z,916
2018-09-23T07:22:36.920Z,924
2018-09-23T07:23:09.026Z,924
2018-09-23T07:23:41.127Z,912
2018-09-23T07:24:13.373Z,908
2018-09-23T07:24:45.441Z,904
2018-09-23T07:25:17.455Z,908
2018-09-23T07:25:49.524Z,920
2018-09-23T07:26:21.673Z,928
2018-09-23T07:26:53.747Z,924
2018-09-23T07:27:25.793Z,916
2018-09-23T07:27:57.845Z,904
2018-09-23T07:28:29.948Z,896
2018-09-23T07:29:02.032Z,888
2018-09-23T07:29:34.137Z,880
2018-09-23T07:30:06.278Z,876
2018-09-23T07:30:38.369Z,868
2018-09-23T07:31:10.399Z,860
2018-09-23T07:31:42.586Z,856
2018-09-23T07:32:14.649Z,864
2018-09-23T07:32:46.695Z,872
2018-09-23T07:33:18.701Z,884
2018-09-23T07:33:50.797Z,892
2018-09-23T07:34:22.842Z,896
2018-09-23T07:34:54.883Z,896
2018-09-23T07:35:26.952Z,888
2018-09-23T07:35:59.093Z,876
2018-09-23T07:36:31.184Z,864
2018-09-23T07:37:03.400Z,856
2018-09-23T07:37:35.357Z,848
2018-09-23T07:38:07.431Z,836
2018-09-23T07:38:39.480Z,836
2018-09-23T07:39:11.546Z,840
2018-09-23T07:39:43.652Z,844
2018-09-23T07:40:15.709Z,848
2018-09-23T07:40:47.775Z,844
2018-09-23T07:41:19.855Z,836
2018-09-23T07:41:51.937Z,828
2018-09-23T07:42:24.104Z,828
2018-09-23T07:42:56.099Z,844
2018-09-23T07:43:28.147Z,872
2018-09-23T07:44:00.207Z,900